createdAt,value
2019-01-26T00:02:16.156Z,8.40
2019-01-26T00:04:46.342Z,8.50
2019-01-26T00:07:18.071Z,8.50
2019-01-26T00:09:48.136Z,8.50
2019-01-26T00:12:18.092Z,8.50
2019-01-26T00:14:48.622Z,8.60
2019-01-26T00:17:19.114Z,8.50
2019-01-26T00:19:50.372Z,8.50
2019-01-26T00:22:20.514Z,8.50
2019-01-26T00:24:50.411Z,8.50
2019-01-26T00:27:20.456Z,8.50
2019-01-26T00:29:50.893Z,8.50
2019-01-26T00:32:21.927Z,8.60
2019-01-26T00:34:51.960Z,8.60
2019-01-26T00:37:21.799Z,8.60
2019-01-26T00:39:51.864Z,8.60
2019-01-26T00:42:23.683Z,8.60
2019-01-26T00:44:54.465Z,8.60
2019-01-26T00:47:24.898Z,8.60
2019-01-26T00:49:56.706Z,8.60
2019-01-26T00:52:27.232Z,8.60
2019-01-26T00:54:57.685Z,8.60
2019-01-26T00:57:44.529Z,8.60
2019-01-26T01:00:16.193Z,8.60
2019-01-26T01:02:47.554Z,8.60
2019-01-26T01:05:18.680Z,8.60
2019-01-26T01:07:51.292Z,8.60
2019-01-26T01:10:22.166Z,8.60
2019-01-26T01:12:57.133Z,8.50
2019-01-26T01:15:28.612Z,8.50
2019-01-26T01:18:05.766Z,8.50
2019-01-26T01:20:38.606Z,8.50
2019-01-26T01:23:13.532Z,8.50
2019-01-26T01:25:44.050Z,8.50
2019-01-26T01:28:14.814Z,8.40
2019-01-26T01:30:44.972Z,8.40
2019-01-26T01:33:14.946Z,8.50
2019-01-26T01:35:45.666Z,8.40
2019-01-26T01:38:16.003Z,8.50
2019-01-26T01:40:46.816Z,8.40
2019-01-26T01:43:19.934Z,8.40
2019-01-26T01:45:54.975Z,8.40
2019-01-26T01:48:27.934Z,8.40
2019-01-26T01:50:58.234Z,8.40
2019-01-26T01:53:29.154Z,8.50
2019-01-26T01:56:06.630Z,8.50
2019-01-26T01:58:36.604Z,8.50
2019-01-26T02:01:07.831Z,8.50
2019-01-26T02:03:37.852Z,8.40
2019-01-26T02:06:07.940Z,8.50
2019-01-26T02:08:38.434Z,8.50
2019-01-26T02:11:14.669Z,8.50
2019-01-26T02:13:46.596Z,8.50
2019-01-26T02:16:18.448Z,8.50
2019-01-26T02:18:49.147Z,8.50
2019-01-26T02:21:19.176Z,8.50
2019-01-26T02:23:49.659Z,8.50
2019-01-26T02:26:19.601Z,8.50
2019-01-26T02:28:49.830Z,9.20
2019-01-26T02:31:22.507Z,8.50
2019-01-26T02:33:52.762Z,8.50
2019-01-26T02:36:23.142Z,8.60
2019-01-26T02:38:53.681Z,8.60
2019-01-26T02:41:24.088Z,8.50
2019-01-26T02:43:54.039Z,8.50
2019-01-26T02:46:24.812Z,8.30
2019-01-26T02:48:55.372Z,8.50
2019-01-26T02:51:27.923Z,8.50
2019-01-26T02:53:57.946Z,8.50
2019-01-26T02:56:28.276Z,8.50
2019-01-26T02:58:58.375Z,8.50
2019-01-26T03:01:29.942Z,8.50
2019-01-26T03:04:00.508Z,8.40
2019-01-26T03:06:32.321Z,8.40
2019-01-26T03:09:02.197Z,8.40
2019-01-26T03:11:32.669Z,8.40
2019-01-26T03:14:03.041Z,8.40
2019-01-26T03:16:33.851Z,8.40
2019-01-26T03:19:04.308Z,8.40
2019-01-26T03:21:34.546Z,8.40
2019-01-26T03:24:05.844Z,8.40
2019-01-26T03:26:40.976Z,8.50
2019-01-26T03:29:11.595Z,8.50
2019-01-26T03:31:41.774Z,8.50
2019-01-26T03:34:12.288Z,8.60
2019-01-26T03:36:42.307Z,8.60
2019-01-26T03:39:12.930Z,8.60
2019-01-26T03:41:42.976Z,8.60
2019-01-26T03:44:13.125Z,8.50
2019-01-26T03:46:43.115Z,8.50
2019-01-26T03:49:17.199Z,8.50
2019-01-26T03:51:47.517Z,8.50
2019-01-26T03:54:17.691Z,8.60
2019-01-26T03:56:47.840Z,8.50
2019-01-26T03:59:18.062Z,8.50
2019-01-26T04:01:48.552Z,8.40
2019-01-26T04:04:18.568Z,8.30
2019-01-26T04:06:49.547Z,8.40
2019-01-26T04:09:19.552Z,8.40
2019-01-26T04:11:49.762Z,8.40
2019-01-26T04:14:19.815Z,8.30
2019-01-26T04:16:50.719Z,8.30
2019-01-26T04:19:20.985Z,8.30
2019-01-26T04:21:58.189Z,8.30
2019-01-26T04:24:28.148Z,8.20
2019-01-26T04:26:58.057Z,8.10
2019-01-26T04:29:28.743Z,8.00
2019-01-26T04:31:58.850Z,7.90
2019-01-26T04:34:29.614Z,8.00
2019-01-26T04:37:00.033Z,7.90
2019-01-26T04:39:30.009Z,8.90
2019-01-26T04:42:00.095Z,8.00
2019-01-26T04:44:32.754Z,8.00
2019-01-26T04:47:03.710Z,8.00
2019-01-26T04:49:36.289Z,8.00
2019-01-26T04:52:06.345Z,8.00
2019-01-26T04:54:36.273Z,8.00
2019-01-26T04:57:06.661Z,8.00
2019-01-26T04:59:36.849Z,8.10
2019-01-26T05:02:07.188Z,8.00
2019-01-26T05:04:37.248Z,8.00
2019-01-26T05:07:09.406Z,8.10
2019-01-26T05:09:39.727Z,8.00
2019-01-26T05:12:17.499Z,8.00
2019-01-26T05:14:48.069Z,8.00
2019-01-26T05:17:18.176Z,8.10
2019-01-26T05:19:48.330Z,8.10
2019-01-26T05:22:20.025Z,8.10
2019-01-26T05:24:52.564Z,8.10
2019-01-26T05:27:22.584Z,8.10
2019-01-26T05:29:53.772Z,8.10
2019-01-26T05:32:23.701Z,8.10
2019-01-26T05:34:53.585Z,8.20
2019-01-26T05:37:23.929Z,8.20
2019-01-26T05:39:53.956Z,8.20
2019-01-26T05:42:25.056Z,8.10
2019-01-26T05:44:56.309Z,8.10
2019-01-26T05:47:26.305Z,8.10
2019-01-26T05:49:56.857Z,8.10
2019-01-26T05:52:27.364Z,8.60
2019-01-26T05:54:57.522Z,8.00
2019-01-26T05:57:27.625Z,8.00
2019-01-26T05:59:59.360Z,8.10
2019-01-26T06:02:30.114Z,8.10
2019-01-26T06:05:01.504Z,8.10
2019-01-26T06:07:31.401Z,8.10
2019-01-26T06:10:01.729Z,8.10
2019-01-26T06:12:32.084Z,8.00
2019-01-26T06:15:02.503Z,8.00
2019-01-26T06:17:36.397Z,8.00
2019-01-26T06:20:09.488Z,8.00
2019-01-26T06:22:39.379Z,8.00
2019-01-26T06:25:14.123Z,8.00
2019-01-26T06:27:44.892Z,8.00
2019-01-26T06:30:22.516Z,7.90
2019-01-26T06:32:57.023Z,7.90
2019-01-26T06:35:26.961Z,7.80
2019-01-26T06:37:57.038Z,7.80
2019-01-26T06:40:27.799Z,7.70
2019-01-26T06:42:57.586Z,7.70
2019-01-26T06:45:27.978Z,7.80
2019-01-26T06:48:02.279Z,7.70
2019-01-26T06:50:30.059Z,7.70
2019-01-26T06:53:00.948Z,7.80
2019-01-26T06:55:30.956Z,7.80
2019-01-26T06:58:00.925Z,7.80
2019-01-26T07:00:32.966Z,7.70
2019-01-26T07:03:04.524Z,7.80
2019-01-26T07:05:58.749Z,7.90
2019-01-26T07:08:28.718Z,7.90
2019-01-26T07:10:58.663Z,8.00
2019-01-26T07:13:28.636Z,8.00
2019-01-26T07:16:00.469Z,8.00
2019-01-26T07:18:30.604Z,8.10
2019-01-26T07:21:00.908Z,8.10
2019-01-26T07:23:31.033Z,8.00
2019-01-26T07:26:01.308Z,8.00
2019-01-26T07:28:31.345Z,8.00
2019-01-26T07:31:03.572Z,8.00
2019-01-26T07:33:35.327Z,8.00
2019-01-26T07:36:05.244Z,8.10
2019-01-26T07:38:35.329Z,8.10
2019-01-26T07:41:05.302Z,8.10
2019-01-26T07:43:35.365Z,8.10
2019-01-26T07:46:06.031Z,8.20
2019-01-26T07:48:37.694Z,8.20
2019-01-26T07:51:07.662Z,8.20
2019-01-26T07:53:37.821Z,8.20
2019-01-26T07:56:07.884Z,8.20
2019-01-26T07:58:38.104Z,8.20
2019-01-26T08:01:08.048Z,8.20
2019-01-26T08:03:38.139Z,8.20
2019-01-26T08:06:08.236Z,8.90
2019-01-26T08:08:40.447Z,8.20
2019-01-26T08:11:11.352Z,8.30
2019-01-26T08:13:41.402Z,8.30
2019-01-26T08:16:11.622Z,8.30
2019-01-26T08:18:41.400Z,8.30
2019-01-26T08:21:15.096Z,8.30
2019-01-26T08:23:44.820Z,8.30
2019-01-26T08:26:14.501Z,8.30
2019-01-26T08:28:44.772Z,8.30
2019-01-26T08:31:16.969Z,8.40
2019-01-26T08:33:46.710Z,8.30
2019-01-26T08:36:16.489Z,8.30
2019-01-26T08:38:47.489Z,8.30
2019-01-26T08:41:17.124Z,8.30
2019-01-26T08:43:47.238Z,8.20
2019-01-26T08:46:18.010Z,8.20
2019-01-26T08:48:48.064Z,8.10
2019-01-26T08:51:17.837Z,8.10
2019-01-26T08:53:48.015Z,8.20
2019-01-26T08:56:17.991Z,8.20
2019-01-26T08:58:49.057Z,8.30
2019-01-26T09:01:18.763Z,8.30
2019-01-26T09:04:10.695Z,8.30
2019-01-26T09:06:46.036Z,8.20
2019-01-26T09:09:15.955Z,8.10
2019-01-26T09:11:45.709Z,8.20
2019-01-26T09:14:15.493Z,8.10
2019-01-26T09:16:45.208Z,8.10
2019-01-26T09:19:19.965Z,8.10
2019-01-26T09:21:50.041Z,8.10
2019-01-26T09:24:20.163Z,8.20
2019-01-26T09:26:50.893Z,8.20
2019-01-26T09:29:23.337Z,8.20
2019-01-26T09:31:54.300Z,8.30
2019-01-26T09:34:24.417Z,8.30
2019-01-26T09:36:54.714Z,8.30
2019-01-26T09:39:24.349Z,8.40
2019-01-26T09:41:54.930Z,8.40
2019-01-26T09:44:24.744Z,8.50
2019-01-26T09:46:54.513Z,8.50
2019-01-26T09:49:24.512Z,8.70
2019-01-26T09:51:54.648Z,8.60
2019-01-26T09:54:25.816Z,8.60
2019-01-26T09:56:55.828Z,8.70
2019-01-26T09:59:29.061Z,8.80
2019-01-26T10:01:58.797Z,8.90
2019-01-26T10:04:28.605Z,8.90
2019-01-26T10:06:58.408Z,9.00
2019-01-26T10:09:28.650Z,9.00
2019-01-26T10:11:58.592Z,9.00
2019-01-26T10:14:28.309Z,9.00
2019-01-26T10:16:58.722Z,9.00
2019-01-26T10:19:28.556Z,9.00
2019-01-26T10:21:58.255Z,9.00
2019-01-26T10:24:31.211Z,9.10
2019-01-26T10:27:02.509Z,9.00
2019-01-26T10:29:32.370Z,8.90
2019-01-26T10:32:04.466Z,8.80
2019-01-26T10:34:34.545Z,8.80
2019-01-26T10:37:08.735Z,9.00
2019-01-26T10:39:38.636Z,9.00
2019-01-26T10:42:21.752Z,8.90
2019-01-26T10:44:55.957Z,9.00
2019-01-26T10:47:25.917Z,8.90
2019-01-26T10:49:58.906Z,9.00
2019-01-26T10:52:28.684Z,9.00
2019-01-26T10:54:58.764Z,9.00
2019-01-26T10:57:30.300Z,9.00
2019-01-26T11:00:01.397Z,9.20
2019-01-26T11:02:32.319Z,9.30
2019-01-26T11:05:02.132Z,9.40
2019-01-26T11:07:32.086Z,9.50
2019-01-26T11:10:02.429Z,9.60
2019-01-26T11:12:36.322Z,9.60
2019-01-26T11:15:08.748Z,9.50
2019-01-26T11:17:38.756Z,9.50
2019-01-26T11:20:12.149Z,9.50
2019-01-26T11:22:46.954Z,9.60
2019-01-26T11:25:16.751Z,9.60
2019-01-26T11:27:50.359Z,9.60
2019-01-26T11:30:21.130Z,9.70
2019-01-26T11:32:50.872Z,9.70
2019-01-26T11:35:23.000Z,9.60
2019-01-26T11:37:56.809Z,9.50
2019-01-26T11:40:32.712Z,9.50
2019-01-26T11:43:02.667Z,9.40
2019-01-26T11:45:45.924Z,9.40
2019-01-26T11:48:22.777Z,9.40
2019-01-26T11:50:58.461Z,9.40
2019-01-26T11:53:30.326Z,9.30
2019-01-26T11:56:08.254Z,9.30
2019-01-26T11:58:37.985Z,9.30
2019-01-26T12:01:23.675Z,9.40
2019-01-26T12:04:13.868Z,9.50
2019-01-26T12:06:55.191Z,9.50
2019-01-26T12:09:25.031Z,9.50
2019-01-26T12:11:55.400Z,9.60
2019-01-26T12:14:27.547Z,9.70
2019-01-26T12:17:07.574Z,9.80
2019-01-26T12:19:37.062Z,9.90
2019-01-26T12:22:07.091Z,9.90
2019-01-26T12:24:40.949Z,10.00
2019-01-26T12:27:10.688Z,10.10
2019-01-26T12:29:40.525Z,10.30
2019-01-26T12:32:10.426Z,10.30
2019-01-26T12:34:41.263Z,10.30
2019-01-26T12:37:13.443Z,10.40
2019-01-26T12:39:43.589Z,10.50
2019-01-26T12:42:13.372Z,10.50
2019-01-26T12:44:43.113Z,10.50
2019-01-26T12:47:16.928Z,10.40
2019-01-26T12:49:44.376Z,10.50
2019-01-26T12:52:14.076Z,10.50
2019-01-26T12:54:45.456Z,10.40
2019-01-26T12:57:15.482Z,10.40
2019-01-26T12:59:45.491Z,10.60
2019-01-26T13:02:15.534Z,10.60
2019-01-26T13:04:46.024Z,10.60
2019-01-26T13:07:16.003Z,10.60
2019-01-26T13:09:46.058Z,10.60
2019-01-26T13:12:16.761Z,10.70
2019-01-26T13:14:46.437Z,10.80
2019-01-26T13:17:16.133Z,10.80
2019-01-26T13:19:47.036Z,10.70
2019-01-26T13:22:18.360Z,10.70
2019-01-26T13:24:50.269Z,10.60
2019-01-26T13:27:21.516Z,10.70
2019-01-26T13:29:51.215Z,10.90
2019-01-26T13:32:20.901Z,10.90
2019-01-26T13:34:50.694Z,10.80
2019-01-26T13:37:21.444Z,10.70
2019-01-26T13:39:51.753Z,10.60
2019-01-26T13:42:21.443Z,10.60
2019-01-26T13:44:51.145Z,10.50
2019-01-26T13:47:20.908Z,10.60
2019-01-26T13:49:52.161Z,10.60
2019-01-26T13:52:23.140Z,10.60
2019-01-26T13:54:52.842Z,10.60
2019-01-26T13:57:22.533Z,10.70
2019-01-26T13:59:54.692Z,10.70
2019-01-26T14:02:27.752Z,10.70
2019-01-26T14:05:13.178Z,10.80
2019-01-26T14:07:44.180Z,10.80
2019-01-26T14:10:54.283Z,10.80
2019-01-26T14:13:34.020Z,10.80
2019-01-26T14:16:17.505Z,10.70
2019-01-26T14:18:47.796Z,10.70
2019-01-26T14:21:17.466Z,10.80
2019-01-26T14:23:47.876Z,10.70
2019-01-26T14:26:19.767Z,10.60
2019-01-26T14:28:50.075Z,10.70
2019-01-26T14:31:19.851Z,10.70
2019-01-26T14:33:49.540Z,10.70
2019-01-26T14:36:20.248Z,10.70
2019-01-26T14:38:50.384Z,10.70
2019-01-26T14:41:23.404Z,10.70
2019-01-26T14:43:55.076Z,10.70
2019-01-26T14:46:25.783Z,10.60
2019-01-26T14:49:04.735Z,10.50
2019-01-26T14:51:34.412Z,10.50
2019-01-26T14:54:04.544Z,10.40
2019-01-26T14:56:35.901Z,10.30
2019-01-26T14:59:15.804Z,10.30
2019-01-26T15:01:45.602Z,10.20
2019-01-26T15:04:15.505Z,10.20
2019-01-26T15:06:45.199Z,10.10
2019-01-26T15:09:15.407Z,10.10
2019-01-26T15:11:45.214Z,10.10
2019-01-26T15:14:22.639Z,10.10
2019-01-26T15:16:52.800Z,10.10
2019-01-26T15:19:23.721Z,10.10
2019-01-26T15:21:53.874Z,10.10
2019-01-26T15:24:31.176Z,10.10
2019-01-26T15:27:01.770Z,10.00
2019-01-26T15:29:32.635Z,9.90
2019-01-26T15:32:02.352Z,9.80
2019-01-26T15:34:32.747Z,9.80
2019-01-26T15:37:02.456Z,9.70
2019-01-26T15:39:32.640Z,9.70
2019-01-26T15:42:02.615Z,9.70
2019-01-26T15:44:32.775Z,9.60
2019-01-26T15:47:02.960Z,9.60
2019-01-26T15:49:32.981Z,9.60
2019-01-26T15:52:03.253Z,9.60
2019-01-26T15:54:33.092Z,9.60
2019-01-26T15:57:02.741Z,9.60
2019-01-26T15:59:32.576Z,9.60
2019-01-26T16:02:04.649Z,9.60
2019-01-26T16:04:35.020Z,9.60
2019-01-26T16:07:04.853Z,9.70
2019-01-26T16:09:34.631Z,9.70
2019-01-26T16:12:04.531Z,9.70
2019-01-26T16:14:36.920Z,9.70
2019-01-26T16:17:06.665Z,9.70
2019-01-26T16:19:36.449Z,9.70
2019-01-26T16:22:06.476Z,9.70
2019-01-26T16:24:37.630Z,9.70
2019-01-26T16:27:07.404Z,9.70
2019-01-26T16:29:37.841Z,9.70
2019-01-26T16:32:07.801Z,9.60
2019-01-26T16:34:38.769Z,9.40
2019-01-26T16:37:09.864Z,9.30
2019-01-26T16:39:40.692Z,9.20
2019-01-26T16:42:10.846Z,9.30
2019-01-26T16:44:40.749Z,9.20
2019-01-26T16:47:10.806Z,9.20
2019-01-26T16:49:41.561Z,9.10
2019-01-26T16:52:14.058Z,9.00
2019-01-26T16:54:44.090Z,8.90
2019-01-26T16:57:14.445Z,8.80
2019-01-26T16:59:45.672Z,8.70
2019-01-26T17:02:17.727Z,8.80
2019-01-26T17:04:47.571Z,8.70
2019-01-26T17:07:17.335Z,8.70
2019-01-26T17:09:47.480Z,8.70
2019-01-26T17:12:17.356Z,8.60
2019-01-26T17:14:47.054Z,8.60
2019-01-26T17:17:17.996Z,8.50
2019-01-26T17:19:47.819Z,8.50
2019-01-26T17:22:20.029Z,8.40
2019-01-26T17:24:49.754Z,8.40
2019-01-26T17:27:20.526Z,8.30
2019-01-26T17:29:50.243Z,8.20
2019-01-26T17:32:20.093Z,8.30
2019-01-26T17:34:49.773Z,8.30
2019-01-26T17:37:19.489Z,8.30
2019-01-26T17:39:49.968Z,8.40
2019-01-26T17:42:19.670Z,8.40
2019-01-26T17:44:49.475Z,8.40
2019-01-26T17:47:24.736Z,8.40
2019-01-26T17:49:55.664Z,8.50
2019-01-26T17:52:25.761Z,8.50
2019-01-26T17:55:00.293Z,8.40
2019-01-26T17:57:44.905Z,8.40
2019-01-26T18:00:26.585Z,8.30
2019-01-26T18:03:05.624Z,8.30
2019-01-26T18:05:38.677Z,8.40
2019-01-26T18:08:09.706Z,8.40
2019-01-26T18:10:40.782Z,8.50
2019-01-26T18:13:11.420Z,8.50
2019-01-26T18:15:42.281Z,8.40
2019-01-26T18:18:12.315Z,8.30
2019-01-26T18:20:48.948Z,8.20
2019-01-26T18:23:14.887Z,8.20
2019-01-26T18:26:09.973Z,8.20
2019-01-26T18:28:40.028Z,8.20
2019-01-26T18:31:09.689Z,8.30
2019-01-26T18:33:39.742Z,8.30
2019-01-26T18:36:09.595Z,8.30
2019-01-26T18:38:39.920Z,8.40
2019-01-26T18:41:11.387Z,8.40
2019-01-26T18:43:41.488Z,8.40
2019-01-26T18:46:11.625Z,8.40
2019-01-26T18:48:41.435Z,8.40
2019-01-26T18:51:13.907Z,8.40
2019-01-26T18:53:44.250Z,8.30
2019-01-26T18:56:14.005Z,8.30
2019-01-26T18:58:43.804Z,8.40
2019-01-26T19:01:13.637Z,8.40
2019-01-26T19:04:26.484Z,8.30
2019-01-26T19:07:00.822Z,8.20
2019-01-26T19:09:31.921Z,8.20
2019-01-26T19:12:03.665Z,8.10
2019-01-26T19:14:33.983Z,8.00
2019-01-26T19:17:05.540Z,8.00
2019-01-26T19:19:35.955Z,8.00
2019-01-26T19:22:08.877Z,8.00
2019-01-26T19:24:38.690Z,8.00
2019-01-26T19:27:10.325Z,8.00
2019-01-26T19:29:40.803Z,8.10
2019-01-26T19:32:11.702Z,8.00
2019-01-26T19:34:44.415Z,8.00
2019-01-26T19:37:17.468Z,8.00
2019-01-26T19:39:48.025Z,8.00
2019-01-26T19:42:19.988Z,8.00
2019-01-26T19:44:50.089Z,8.00
2019-01-26T19:47:21.780Z,7.90
2019-01-26T19:49:51.528Z,7.80
2019-01-26T19:52:21.311Z,7.80
2019-01-26T19:58:25.608Z,7.80
2019-01-26T20:01:01.800Z,7.80
2019-01-26T20:03:37.105Z,7.80
2019-01-26T20:06:07.790Z,7.80
2019-01-26T20:09:00.145Z,7.80
2019-01-26T20:11:51.410Z,7.80
2019-01-26T20:17:09.888Z,7.80
2019-01-26T20:19:42.747Z,7.80
2019-01-26T20:22:33.394Z,7.80
2019-01-26T20:25:13.257Z,7.80
2019-01-26T20:27:45.926Z,7.80
2019-01-26T20:30:19.786Z,7.80
2019-01-26T20:32:52.509Z,7.80
2019-01-26T20:35:34.452Z,7.90
2019-01-26T20:38:07.473Z,7.90
2019-01-26T20:40:44.115Z,7.90
2019-01-26T20:43:14.395Z,8.00
2019-01-26T20:49:01.637Z,8.00
2019-01-26T20:51:34.370Z,8.00
2019-01-26T20:54:04.301Z,7.90
2019-01-26T20:56:35.691Z,8.00
2019-01-26T20:59:09.039Z,7.90
2019-01-26T21:01:42.682Z,7.90
2019-01-26T21:04:14.157Z,7.90
2019-01-26T21:06:45.050Z,7.90
2019-01-26T21:09:14.985Z,7.90
2019-01-26T21:11:56.543Z,7.90
2019-01-26T21:18:17.314Z,7.90
2019-01-26T21:24:11.271Z,7.80
2019-01-26T21:26:41.265Z,7.70
2019-01-26T21:29:12.316Z,7.70
2019-01-26T21:31:43.672Z,7.70
2019-01-26T21:34:41.721Z,7.60
2019-01-26T21:37:23.300Z,7.60
2019-01-26T21:40:19.513Z,7.70
2019-01-26T21:43:10.001Z,7.80
2019-01-26T21:45:44.373Z,7.80
2019-01-26T21:48:18.070Z,7.80
2019-01-26T21:51:10.401Z,7.90
2019-01-26T21:54:02.805Z,8.00
2019-01-26T21:56:32.528Z,8.00
2019-01-26T21:59:08.255Z,7.90
2019-01-26T22:01:40.502Z,7.90
2019-01-26T22:04:18.473Z,8.00
2019-01-26T22:06:52.930Z,8.00
2019-01-26T22:12:20.737Z,8.10
2019-01-26T22:15:02.400Z,8.20
2019-01-26T22:17:41.580Z,8.20
2019-01-26T22:20:20.552Z,8.20
2019-01-26T22:22:54.379Z,8.20
2019-01-26T22:25:31.435Z,8.10
2019-01-26T22:28:12.940Z,8.20
2019-01-26T22:30:51.228Z,8.20
2019-01-26T22:33:30.847Z,8.20
2019-01-26T22:36:02.600Z,8.20
2019-01-26T22:38:40.221Z,8.20
2019-01-26T22:41:43.537Z,8.20
2019-01-26T22:44:15.807Z,8.30
2019-01-26T22:46:47.218Z,8.30
2019-01-26T22:49:17.934Z,8.20
2019-01-26T22:51:53.630Z,8.10
2019-01-26T22:54:41.635Z,8.10
2019-01-26T22:57:11.420Z,8.00
2019-01-26T22:59:41.708Z,8.00
2019-01-26T23:02:13.229Z,8.10
2019-01-26T23:05:35.714Z,8.10
2019-01-26T23:08:20.351Z,8.10
2019-01-26T23:11:40.927Z,8.10
2019-01-26T23:14:30.955Z,7.90
2019-01-26T23:17:41.132Z,7.80
2019-01-26T23:20:32.374Z,7.70
2019-01-26T23:23:13.069Z,7.70
2019-01-26T23:26:20.857Z,7.60
2019-01-26T23:29:28.833Z,7.60
2019-01-26T23:32:01.752Z,6.60
2019-01-26T23:34:31.835Z,7.50
2019-01-26T23:37:03.731Z,7.50
2019-01-26T23:39:36.131Z,7.50
2019-01-26T23:42:08.795Z,7.50
2019-01-26T23:44:39.547Z,7.50
2019-01-26T23:47:10.915Z,7.50
2019-01-26T23:49:42.280Z,7.60
2019-01-26T23:52:13.201Z,7.60
2019-01-26T23:54:46.740Z,7.60
2019-01-26T23:57:16.921Z,7.60
2019-01-26T23:59:49.234Z,7.60
